TAF for EBCV provided by aerobaticsweb.org
Current time: Tuesday, 26 Jan, 2021, 02:45 UTC
(This may take a minute, please be patient)


The most recent TAF forecast from EBCV in our system was generated at
2021/01/25 19:51
The forecast is:
EBCV 2021/01/25 19:51
TAF EBCV 251541Z 2519/2607 26008KT 9999 FEW015 SCT025 BY EBWM



access provided by Dr. Guenther Eichhorn at aerobaticsweb.org